createdAt,value
2022-07-25T00:00:10.145Z,99521.75
2022-07-25T00:03:00.433Z,99515.00
2022-07-25T00:05:51.854Z,99515.16
2022-07-25T00:08:40.333Z,99506.41
2022-07-25T00:11:28.816Z,99509.88
2022-07-25T00:14:17.343Z,99505.59
2022-07-25T00:17:05.832Z,99500.66
2022-07-25T00:19:55.650Z,99500.97
2022-07-25T00:22:44.100Z,99505.09
2022-07-25T00:25:33.094Z,99504.28
2022-07-25T00:28:21.529Z,99507.06
2022-07-25T00:31:10.116Z,99511.34
2022-07-25T00:33:58.665Z,99504.38
2022-07-25T00:36:48.540Z,99503.38
2022-07-25T00:39:37.074Z,99506.78
2022-07-25T00:42:25.643Z,99513.31
2022-07-25T00:45:14.194Z,99510.84
2022-07-25T00:48:02.671Z,99508.97
2022-07-25T00:50:51.255Z,99510.56
2022-07-25T00:53:41.148Z,99497.69
2022-07-25T00:56:29.702Z,99499.91
2022-07-25T00:59:18.331Z,99495.72
2022-07-25T01:02:06.896Z,99490.19
2022-07-25T01:04:57.057Z,99487.78
2022-07-25T01:07:45.578Z,99484.28
2022-07-25T01:10:35.549Z,99480.75
2022-07-25T01:13:24.025Z,99482.22
2022-07-25T01:16:12.619Z,99474.09
2022-07-25T01:19:01.168Z,99458.25
2022-07-25T01:21:51.058Z,99455.09
2022-07-25T01:24:40.252Z,99446.84
2022-07-25T01:27:28.955Z,99448.28
2022-07-25T01:30:17.652Z,99441.97
2022-07-25T01:33:06.531Z,99452.81
2022-07-25T01:35:55.655Z,99437.59
2022-07-25T01:38:45.466Z,99423.94
2022-07-25T01:41:34.014Z,99427.03
2022-07-25T01:44:22.910Z,99425.38
2022-07-25T01:47:11.355Z,99415.38
2022-07-25T01:49:59.848Z,99419.19
2022-07-25T01:52:48.364Z,99424.69
2022-07-25T01:55:38.216Z,99423.28
2022-07-25T01:58:26.704Z,99422.66
2022-07-25T02:01:15.719Z,99425.34
2022-07-25T02:04:05.487Z,99426.22
2022-07-25T02:06:54.298Z,99418.22
2022-07-25T02:09:42.826Z,99417.31
2022-07-25T02:12:32.914Z,99417.22
2022-07-25T02:15:21.547Z,99418.22
2022-07-25T02:18:10.024Z,99423.72
2022-07-25T02:20:58.528Z,99422.56
2022-07-25T02:23:46.998Z,99425.88
2022-07-25T02:26:35.800Z,99427.22
2022-07-25T02:29:25.615Z,99432.34
2022-07-25T02:32:14.157Z,99424.75
2022-07-25T02:35:02.684Z,99425.75
2022-07-25T02:37:51.169Z,99424.06
2022-07-25T02:40:39.644Z,99418.13
2022-07-25T02:43:28.115Z,99420.13
2022-07-25T02:46:17.971Z,99419.91
2022-07-25T02:49:06.574Z,99408.66
2022-07-25T02:51:55.124Z,99405.13
2022-07-25T02:54:43.659Z,99414.63
2022-07-25T02:57:32.190Z,99411.94
2022-07-25T03:00:20.819Z,99408.16
2022-07-25T03:03:10.632Z,99403.81
2022-07-25T03:05:59.222Z,99404.56
2022-07-25T03:08:47.755Z,99406.44
2022-07-25T03:11:36.241Z,99396.53
2022-07-25T03:14:24.942Z,99405.53
2022-07-25T03:17:13.447Z,99404.34
2022-07-25T03:20:03.443Z,99403.50
2022-07-25T03:22:51.924Z,99404.34
2022-07-25T03:25:40.403Z,99405.16
2022-07-25T03:28:28.969Z,99405.00
2022-07-25T03:31:17.547Z,99402.06
2022-07-25T03:34:06.337Z,99396.81
2022-07-25T03:36:56.497Z,99393.50
2022-07-25T03:39:45.239Z,99397.22
2022-07-25T03:42:35.414Z,99396.59
2022-07-25T03:45:24.440Z,99401.41
2022-07-25T03:48:12.941Z,99401.34
2022-07-25T03:51:06.557Z,99389.75
2022-07-25T03:54:02.961Z,99393.97
2022-07-25T03:56:52.208Z,99390.13
2022-07-25T03:59:40.725Z,99398.44
2022-07-25T04:02:29.319Z,99387.63
2022-07-25T04:05:19.288Z,99386.25
2022-07-25T04:08:07.787Z,99387.44
2022-07-25T04:10:57.621Z,99385.63
2022-07-25T04:13:46.119Z,99382.88
2022-07-25T04:16:34.931Z,99386.78
2022-07-25T04:19:27.703Z,99377.81
2022-07-25T04:22:17.393Z,99386.81
2022-07-25T04:25:07.356Z,99381.41
2022-07-25T04:27:57.180Z,99381.00
2022-07-25T04:30:46.344Z,99375.97
2022-07-25T04:33:37.283Z,99377.03
2022-07-25T04:36:26.610Z,99372.16
2022-07-25T04:39:15.170Z,99373.19
2022-07-25T04:42:03.680Z,99356.16
2022-07-25T04:44:54.149Z,99356.00
2022-07-25T04:47:42.682Z,99362.75
2022-07-25T04:50:31.429Z,99360.50
2022-07-25T04:53:19.947Z,99354.66
2022-07-25T04:56:09.015Z,99352.38
2022-07-25T04:59:00.599Z,99353.03
2022-07-25T05:01:53.097Z,99353.03
2022-07-25T05:04:45.440Z,99353.72
2022-07-25T05:07:34.193Z,99354.72
2022-07-25T05:10:22.699Z,99347.66
2022-07-25T05:13:11.242Z,99353.13
2022-07-25T05:16:01.729Z,99352.50
2022-07-25T05:18:51.594Z,99349.66
2022-07-25T05:21:40.062Z,99353.38
2022-07-25T05:24:28.602Z,99358.56
2022-07-25T05:27:17.124Z,99351.56
2022-07-25T05:30:08.003Z,99356.97
2022-07-25T05:32:56.746Z,99351.75
2022-07-25T05:35:46.621Z,99355.09
2022-07-25T05:38:35.099Z,99343.78
2022-07-25T05:41:23.639Z,99337.44
2022-07-25T05:44:12.199Z,99333.81
2022-07-25T05:47:00.779Z,99330.03
2022-07-25T05:49:49.259Z,99320.91
2022-07-25T05:52:39.092Z,99321.66
2022-07-25T05:55:27.935Z,99324.25
2022-07-25T05:58:16.439Z,99317.41
2022-07-25T06:01:04.987Z,99316.19
2022-07-25T06:03:53.492Z,99316.19
2022-07-25T06:06:42.030Z,99311.09
2022-07-25T06:09:32.925Z,99313.59
2022-07-25T06:12:21.401Z,99316.19
2022-07-25T06:15:19.763Z,99319.41
2022-07-25T06:18:11.674Z,99319.25
2022-07-25T06:21:00.439Z,99324.28
2022-07-25T06:23:48.914Z,99324.66
2022-07-25T06:26:40.347Z,99330.44
2022-07-25T06:29:28.823Z,99320.56
2022-07-25T06:32:17.307Z,99320.22
2022-07-25T06:35:06.931Z,99310.50
2022-07-25T06:37:55.582Z,99313.72
2022-07-25T06:40:44.148Z,99312.34
2022-07-25T06:43:34.016Z,99316.13
2022-07-25T06:46:22.557Z,99314.66
2022-07-25T06:49:11.138Z,99314.28
2022-07-25T06:51:59.617Z,99303.78
2022-07-25T06:54:48.113Z,99299.75
2022-07-25T06:57:36.656Z,99301.84
2022-07-25T07:00:26.515Z,99297.00
2022-07-25T07:03:15.157Z,99302.56
2022-07-25T07:06:03.616Z,99307.75
2022-07-25T07:08:52.069Z,99307.53
2022-07-25T07:11:40.625Z,99306.59
2022-07-25T07:14:29.320Z,99308.13
2022-07-25T07:17:19.145Z,99301.50
2022-07-25T07:20:09.157Z,99300.47
2022-07-25T07:22:57.709Z,99296.41
2022-07-25T07:25:47.579Z,99292.66
2022-07-25T07:28:36.363Z,99300.56
2022-07-25T07:31:24.904Z,99296.63
2022-07-25T07:34:16.349Z,99296.66
2022-07-25T07:37:05.211Z,99292.63
2022-07-25T07:39:53.701Z,99304.06
2022-07-25T07:42:43.184Z,99302.38
2022-07-25T07:45:32.097Z,99299.75
2022-07-25T07:48:20.623Z,99308.13
2022-07-25T07:51:10.714Z,99295.56
2022-07-25T07:54:16.704Z,99307.66
2022-07-25T07:57:05.530Z,99293.28
2022-07-25T07:59:54.036Z,99294.72
2022-07-25T08:02:47.026Z,99294.47
2022-07-25T08:05:37.456Z,99300.50
2022-07-25T08:08:31.100Z,99295.94
2022-07-25T08:11:19.980Z,99300.59
2022-07-25T08:14:08.715Z,99292.97
2022-07-25T08:16:58.601Z,99296.63
2022-07-25T08:19:47.090Z,99301.56
2022-07-25T08:22:40.094Z,99307.66
2022-07-25T08:25:30.029Z,99307.16
2022-07-25T08:28:18.568Z,99314.91
2022-07-25T08:31:07.578Z,99306.47
2022-07-25T08:33:56.059Z,99303.88
2022-07-25T08:36:44.602Z,99309.53
2022-07-25T08:39:34.085Z,99306.13
2022-07-25T08:42:23.938Z,99299.91
2022-07-25T08:45:14.372Z,99309.44
2022-07-25T08:48:02.864Z,99305.56
2022-07-25T08:50:51.488Z,99298.94
2022-07-25T08:53:40.008Z,99300.91
2022-07-25T08:56:28.839Z,99297.06
2022-07-25T08:59:18.688Z,99298.72
2022-07-25T09:02:10.748Z,99294.16
2022-07-25T09:04:59.604Z,99300.50
2022-07-25T09:07:48.112Z,99296.44
2022-07-25T09:10:36.962Z,99288.03
2022-07-25T09:13:25.567Z,99286.34
2022-07-25T09:16:15.534Z,99275.34
2022-07-25T09:19:10.619Z,99278.34
2022-07-25T09:22:01.386Z,99266.06
2022-07-25T09:24:50.047Z,99273.06
2022-07-25T09:27:38.553Z,99266.72
2022-07-25T09:30:27.002Z,99265.78
2022-07-25T09:33:16.872Z,99266.94
2022-07-25T09:36:11.781Z,99278.09
2022-07-25T09:39:01.810Z,99256.34
2022-07-25T09:41:51.001Z,99259.94
2022-07-25T09:44:39.474Z,99265.84
2022-07-25T09:47:28.095Z,99255.38
2022-07-25T09:50:17.906Z,99247.41
2022-07-25T09:53:06.461Z,99242.56
2022-07-25T09:55:56.842Z,99236.44
2022-07-25T09:58:45.344Z,99237.22
2022-07-25T10:01:37.732Z,99230.19
2022-07-25T10:04:34.714Z,99248.72
2022-07-25T10:07:30.926Z,99232.13
2022-07-25T10:10:26.338Z,99227.91
2022-07-25T10:13:17.797Z,99225.13
2022-07-25T10:16:16.657Z,99217.88
2022-07-25T10:19:05.161Z,99222.63
2022-07-25T10:21:56.315Z,99213.22
2022-07-25T10:24:47.510Z,99214.13
2022-07-25T10:27:43.690Z,99218.19
2022-07-25T10:30:36.278Z,99215.06
2022-07-25T10:33:26.351Z,99213.94
2022-07-25T10:36:14.869Z,99219.44
2022-07-25T10:39:03.510Z,99210.44
2022-07-25T10:41:54.486Z,99209.22
2022-07-25T10:44:44.683Z,99208.34
2022-07-25T10:47:38.141Z,99199.63
2022-07-25T10:50:53.366Z,99200.13
2022-07-25T10:53:38.266Z,99191.75
2022-07-25T10:56:28.186Z,99190.06
2022-07-25T10:59:28.172Z,99181.44
2022-07-25T11:02:17.237Z,99182.81
2022-07-25T11:05:06.996Z,99185.66
2022-07-25T11:08:20.014Z,99182.31
2022-07-25T11:11:04.934Z,99181.75
2022-07-25T11:13:53.463Z,99174.88
2022-07-25T11:16:43.595Z,99165.75
2022-07-25T11:19:32.114Z,99165.28
2022-07-25T11:22:20.675Z,99164.13
2022-07-25T11:25:12.763Z,99167.97
2022-07-25T11:28:03.234Z,99163.06
2022-07-25T11:30:51.714Z,99181.41
2022-07-25T11:33:42.891Z,99178.50
2022-07-25T11:36:31.370Z,99175.75
2022-07-25T11:39:19.924Z,99165.22
2022-07-25T11:42:10.038Z,99157.19
2022-07-25T11:44:58.517Z,99162.38
2022-07-25T11:47:48.209Z,99170.03
2022-07-25T11:50:39.721Z,99169.63
2022-07-25T11:53:29.272Z,99168.44
2022-07-25T11:56:41.294Z,99161.19
2022-07-25T11:59:28.261Z,99172.00
2022-07-25T12:02:24.197Z,99163.56
2022-07-25T12:05:15.283Z,99144.97
2022-07-25T12:08:11.438Z,99149.44
2022-07-25T12:11:00.667Z,99152.84
2022-07-25T12:13:49.434Z,99152.19
2022-07-25T12:16:38.124Z,99160.78
2022-07-25T12:19:26.680Z,99164.94
2022-07-25T12:22:15.185Z,99142.28
2022-07-25T12:25:05.956Z,99147.59
2022-07-25T12:27:54.565Z,99144.84
2022-07-25T12:30:44.341Z,99132.81
2022-07-25T12:33:33.556Z,99151.69
2022-07-25T12:36:22.048Z,99129.66
2022-07-25T12:39:10.762Z,99124.75
2022-07-25T12:42:00.720Z,99102.75
2022-07-25T12:44:49.218Z,99115.69
2022-07-25T12:47:37.832Z,99106.00
2022-07-25T12:50:26.639Z,99105.91
2022-07-25T12:53:15.181Z,99106.59
2022-07-25T12:56:03.760Z,99109.19
2022-07-25T12:58:54.743Z,99103.00
2022-07-25T13:01:43.293Z,99107.31
2022-07-25T13:04:31.845Z,99102.63
2022-07-25T13:07:20.547Z,99111.25
2022-07-25T13:10:10.207Z,99095.81
2022-07-25T13:12:58.682Z,99087.28
2022-07-25T13:15:51.633Z,99093.63
2022-07-25T13:18:40.121Z,99102.00
2022-07-25T13:21:29.490Z,99092.16
2022-07-25T13:24:18.058Z,99095.09
2022-07-25T13:27:06.845Z,99104.13
2022-07-25T13:29:55.371Z,99117.22
2022-07-25T13:32:45.276Z,99109.66
2022-07-25T13:35:38.832Z,99101.19
2022-07-25T13:38:28.043Z,99113.16
2022-07-25T13:41:16.580Z,99113.34
2022-07-25T13:44:06.528Z,99103.50
2022-07-25T13:46:55.864Z,99106.69
2022-07-25T13:49:45.757Z,99107.06
2022-07-25T13:52:34.274Z,99106.19
2022-07-25T13:55:22.816Z,99099.34
2022-07-25T13:58:11.299Z,99093.66
2022-07-25T14:00:59.862Z,99100.63
2022-07-25T14:03:48.761Z,99095.22
2022-07-25T14:06:38.605Z,99103.63
2022-07-25T14:09:27.387Z,99104.44
2022-07-25T14:12:15.927Z,99098.41
2022-07-25T14:15:04.995Z,99098.31
2022-07-25T14:17:53.638Z,99099.81
2022-07-25T14:20:42.167Z,99080.50
2022-07-25T14:23:32.033Z,99071.22
2022-07-25T14:26:20.571Z,99068.66
2022-07-25T14:29:11.185Z,99086.09
2022-07-25T14:31:59.835Z,99088.97
2022-07-25T14:34:48.438Z,99098.41
2022-07-25T14:37:36.959Z,99100.81
2022-07-25T14:40:27.030Z,99097.34
2022-07-25T14:43:15.508Z,99084.38
2022-07-25T14:46:03.988Z,99087.63
2022-07-25T14:48:54.288Z,99108.19
2022-07-25T14:51:42.927Z,99104.06
2022-07-25T14:54:31.392Z,99098.94
2022-07-25T14:57:22.356Z,99093.41
2022-07-25T15:00:12.750Z,99094.72
2022-07-25T15:03:01.594Z,99097.16
2022-07-25T15:05:50.114Z,99097.38
2022-07-25T15:08:39.798Z,99087.50
2022-07-25T15:11:28.385Z,99080.53
2022-07-25T15:14:18.268Z,99076.59
2022-07-25T15:17:06.770Z,99081.63
2022-07-25T15:19:55.239Z,99068.34
2022-07-25T15:22:43.727Z,99071.25
2022-07-25T15:26:00.734Z,99066.06
2022-07-25T15:28:40.751Z,99061.84
2022-07-25T15:31:30.673Z,99047.69
2022-07-25T15:34:19.266Z,99057.28
2022-07-25T15:37:07.768Z,99053.16
2022-07-25T15:39:56.328Z,99055.31
2022-07-25T15:42:44.916Z,99053.84
2022-07-25T15:45:33.911Z,99069.41
2022-07-25T15:48:24.943Z,99061.91
2022-07-25T15:51:13.955Z,99049.16
2022-07-25T15:54:02.419Z,99050.38
2022-07-25T15:56:51.021Z,99035.88
2022-07-25T15:59:39.534Z,99046.03
2022-07-25T16:02:28.015Z,99037.19
2022-07-25T16:05:17.935Z,99025.09
2022-07-25T16:08:08.168Z,99035.34
2022-07-25T16:10:56.837Z,99045.38
2022-07-25T16:13:45.421Z,99045.16
2022-07-25T16:16:34.072Z,99042.69
2022-07-25T16:19:22.626Z,99045.81
2022-07-25T16:22:12.474Z,99051.28
2022-07-25T16:25:02.795Z,99057.44
2022-07-25T16:27:51.483Z,99059.75
2022-07-25T16:30:40.063Z,99058.59
2022-07-25T16:33:28.522Z,99073.97
2022-07-25T16:36:16.998Z,99060.84
2022-07-25T16:39:07.109Z,99084.22
2022-07-25T16:41:55.940Z,99106.81
2022-07-25T16:44:44.417Z,99105.53
2022-07-25T16:47:33.011Z,99109.41
2022-07-25T16:50:21.719Z,99120.09
2022-07-25T16:53:10.254Z,99104.09
2022-07-25T16:56:00.161Z,99131.72
2022-07-25T16:58:48.859Z,99138.69
2022-07-25T17:01:37.534Z,99141.50
2022-07-25T17:04:26.024Z,99145.75
2022-07-25T17:07:14.544Z,99148.78
2022-07-25T17:10:03.013Z,99151.78
2022-07-25T17:12:52.893Z,99151.69
2022-07-25T17:15:43.098Z,99155.22
2022-07-25T17:18:31.636Z,99171.31
2022-07-25T17:21:21.674Z,99173.88
2022-07-25T17:24:10.933Z,99182.75
2022-07-25T17:26:59.620Z,99171.09
2022-07-25T17:29:49.459Z,99182.66
2022-07-25T17:32:37.972Z,99191.69
2022-07-25T17:35:26.533Z,99193.59
2022-07-25T17:38:15.081Z,99191.75
2022-07-25T17:41:03.659Z,99203.03
2022-07-25T17:43:52.158Z,99199.56
2022-07-25T17:46:42.458Z,99202.84
2022-07-25T17:49:31.081Z,99200.00
2022-07-25T17:52:19.584Z,99205.75
2022-07-25T17:55:08.893Z,99212.09
2022-07-25T17:57:59.629Z,99211.06
2022-07-25T18:00:48.112Z,99219.91
2022-07-25T18:03:37.959Z,99218.09
2022-07-25T18:06:29.907Z,99217.28
2022-07-25T18:09:20.262Z,99218.50
2022-07-25T18:12:09.087Z,99230.75
2022-07-25T18:14:57.585Z,99233.63
2022-07-25T18:17:46.466Z,99240.19
2022-07-25T18:20:36.788Z,99252.66
2022-07-25T18:23:27.010Z,99247.53
2022-07-25T18:26:15.506Z,99254.69
2022-07-25T18:29:04.280Z,99247.75
2022-07-25T18:31:52.775Z,99246.06
2022-07-25T18:34:41.306Z,99253.19
2022-07-25T18:37:31.542Z,99272.78
2022-07-25T18:40:20.814Z,99278.94
2022-07-25T18:43:09.284Z,99280.53
2022-07-25T18:46:00.881Z,99277.88
2022-07-25T18:48:50.690Z,99276.22
2022-07-25T18:51:39.253Z,99288.66
2022-07-25T18:54:29.146Z,99298.38
2022-07-25T18:57:17.693Z,99296.53
2022-07-25T19:00:08.190Z,99303.00
2022-07-25T19:02:56.654Z,99306.84
2022-07-25T19:05:45.759Z,99313.31
2022-07-25T19:08:34.915Z,99319.81
2022-07-25T19:11:24.754Z,99322.97
2022-07-25T19:14:13.189Z,99328.81
2022-07-25T19:17:03.303Z,99336.28
2022-07-25T19:19:51.929Z,99339.25
2022-07-25T19:22:40.477Z,99338.22
2022-07-25T19:25:29.003Z,99353.63
2022-07-25T19:28:18.895Z,99360.69
2022-07-25T19:31:08.461Z,99375.69
2022-07-25T19:33:56.989Z,99374.16
2022-07-25T19:36:46.266Z,99377.75
2022-07-25T19:39:34.870Z,99386.38
2022-07-25T19:42:23.417Z,99392.97
2022-07-25T19:45:13.574Z,99395.75
2022-07-25T19:48:02.088Z,99402.72
2022-07-25T19:50:50.666Z,99398.38
2022-07-25T19:53:39.159Z,99400.09
2022-07-25T19:56:27.665Z,99400.84
2022-07-25T19:59:16.191Z,99407.69
2022-07-25T20:02:06.155Z,99406.97
2022-07-25T20:04:54.708Z,99396.44
2022-07-25T20:07:43.204Z,99402.47
2022-07-25T20:10:31.806Z,99393.59
2022-07-25T20:13:20.249Z,99404.53
2022-07-25T20:16:10.398Z,99410.53
2022-07-25T20:19:01.019Z,99411.25
2022-07-25T20:21:49.666Z,99420.56
2022-07-25T20:24:38.190Z,99425.75
2022-07-25T20:27:26.645Z,99426.28
2022-07-25T20:30:15.427Z,99442.03
2022-07-25T20:33:05.393Z,99451.53
2022-07-25T20:35:59.667Z,99453.25
2022-07-25T20:38:48.488Z,99456.59
2022-07-25T20:41:37.692Z,99461.88
2022-07-25T20:44:26.968Z,99473.16
2022-07-25T20:47:17.002Z,99486.09
2022-07-25T20:50:06.373Z,99490.06
2022-07-25T20:52:56.368Z,99494.25
2022-07-25T20:55:45.170Z,99499.22
2022-07-25T20:58:33.800Z,99500.59
2022-07-25T21:01:22.390Z,99504.72
2022-07-25T21:04:11.051Z,99508.25
2022-07-25T21:06:59.642Z,99509.91
2022-07-25T21:09:49.692Z,99517.22
2022-07-25T21:12:38.336Z,99522.34
2022-07-25T21:15:26.828Z,99515.56
2022-07-25T21:18:15.363Z,99520.19
2022-07-25T21:21:05.723Z,99518.72
2022-07-25T21:23:55.165Z,99526.00
2022-07-25T21:26:45.043Z,99519.25
2022-07-25T21:29:33.556Z,99522.84
2022-07-25T21:32:23.546Z,99528.66
2022-07-25T21:35:12.102Z,99531.44
2022-07-25T21:38:00.621Z,99535.41
2022-07-25T21:40:49.135Z,99531.00
2022-07-25T21:43:38.981Z,99534.78
2022-07-25T21:46:27.530Z,99541.56
2022-07-25T21:49:40.968Z,99539.41
2022-07-25T21:52:34.460Z,99540.09
2022-07-25T21:55:23.550Z,99537.63
2022-07-25T21:58:12.083Z,99541.22
2022-07-25T22:01:02.061Z,99537.13
2022-07-25T22:03:50.613Z,99533.00
2022-07-25T22:06:39.136Z,99528.03
2022-07-25T22:09:27.683Z,99520.78
2022-07-25T22:12:16.256Z,99524.72
2022-07-25T22:15:05.513Z,99525.22
2022-07-25T22:17:55.355Z,99537.28
2022-07-25T22:20:44.335Z,99536.91
2022-07-25T22:23:32.916Z,99535.44
2022-07-25T22:26:21.667Z,99531.47
2022-07-25T22:29:10.710Z,99528.34
2022-07-25T22:32:00.167Z,99542.88
2022-07-25T22:34:49.988Z,99552.09
2022-07-25T22:37:38.470Z,99554.41
2022-07-25T22:40:26.896Z,99561.31
2022-07-25T22:43:15.347Z,99565.63
2022-07-25T22:46:03.973Z,99570.22
2022-07-25T22:48:52.533Z,99571.38
2022-07-25T22:51:42.462Z,99569.84
2022-07-25T22:54:30.913Z,99579.75
2022-07-25T22:57:19.410Z,99583.53
2022-07-25T23:00:09.956Z,99583.03
2022-07-25T23:02:58.531Z,99585.94
2022-07-25T23:05:47.101Z,99578.38
2022-07-25T23:08:36.943Z,99584.94
2022-07-25T23:11:27.171Z,99594.16
2022-07-25T23:14:15.674Z,99593.50
2022-07-25T23:17:19.949Z,99587.56
2022-07-25T23:20:10.013Z,99583.75
2022-07-25T23:22:58.513Z,99584.91
2022-07-25T23:25:48.322Z,99587.53
2022-07-25T23:28:36.857Z,99588.38
2022-07-25T23:31:25.431Z,99582.94
2022-07-25T23:34:13.991Z,99588.22
2022-07-25T23:37:02.688Z,99587.38
2022-07-25T23:39:51.219Z,99589.19
2022-07-25T23:42:41.052Z,99599.09
2022-07-25T23:45:30.345Z,99597.81
2022-07-25T23:48:18.964Z,99601.25
2022-07-25T23:51:07.796Z,99600.28
2022-07-25T23:53:57.069Z,99597.47
2022-07-25T23:56:45.605Z,99593.00
2022-07-25T23:59:36.002Z,99604.41
